Details for Ryanair at EICK




Go Back


Latest METAR
Local Time

EICK 212330Z 32009KT 9999 FEW025 11/06 Q1034 NOSIG

22/06/2018, 00:39:31

Description
Results
Ryanair Logo
Number of Pilots based at EICK
0 Pilots Based here
Number of Ryanair Flights Departed from EICK
1 Flights Departed
Number of Ryanair Flights Arrived at EICK
1 Flights Arrived
Number of Ryanair Schedules Departing from EICK
23 Schedules
Number of Ryanair Schedules Arriving at EICK
24 Schedules
Number of Ryanair Schedules Departing from EICK availible today
7 Schedules Today
Number of Ryanair Schedules Arriving at EICK availible today
8 Schedules Today
Average Landing Rate at EICK
-258 fpm
Ryanair Average Landing Rate at EICK
-248 fpm
Total Fuel Purchased at EICK by Ryanair
6,078.59 kgs / 13,400.86 lbs

Pilots Based at EICK


Pilot ID
Pilot Name
Pilot Rank
No. of Flights
No. of Flying Hours
There are no pilots assigned to this hub!   Will you be the first?
Content